createdAt,value
2023-03-05T00:01:04.051Z,98166.38
2023-03-05T00:06:06.346Z,98153.09
2023-03-05T00:11:10.939Z,98154.53
2023-03-05T00:16:15.334Z,98153.72
2023-03-05T00:21:21.053Z,98154.41
2023-03-05T00:26:26.102Z,98143.19
2023-03-05T00:31:31.153Z,98138.78
2023-03-05T00:36:33.239Z,98139.41
2023-03-05T00:41:35.006Z,98136.22
2023-03-05T00:46:37.937Z,98119.63
2023-03-05T00:51:39.771Z,98125.44
2023-03-05T00:56:41.626Z,98108.41
2023-03-05T01:01:43.485Z,98112.19
2023-03-05T01:06:46.711Z,98109.38
2023-03-05T01:11:48.881Z,98102.59
2023-03-05T01:16:50.666Z,98099.59
2023-03-05T01:21:52.511Z,98095.31
2023-03-05T01:26:54.270Z,98093.53
2023-03-05T01:31:56.138Z,98083.31
2023-03-05T01:36:57.944Z,98080.91
2023-03-05T01:41:59.867Z,98068.28
2023-03-05T01:47:01.757Z,98069.69
2023-03-05T01:52:06.520Z,98077.22
2023-03-05T01:57:14.131Z,98070.00
2023-03-05T02:02:17.330Z,98059.56
2023-03-05T02:07:19.317Z,98060.69
2023-03-05T02:12:21.382Z,98059.41
2023-03-05T02:17:23.335Z,98054.50
2023-03-05T02:22:25.430Z,98041.13
2023-03-05T02:27:35.147Z,98042.06
2023-03-05T02:32:36.953Z,98038.53
2023-03-05T02:37:39.453Z,98031.22
2023-03-05T02:42:42.916Z,98015.41
2023-03-05T02:47:46.601Z,98022.50
2023-03-05T02:52:48.523Z,98023.44
2023-03-05T02:57:52.030Z,98024.72
2023-03-05T03:02:53.984Z,98026.13
2023-03-05T03:07:55.761Z,98028.78
2023-03-05T03:12:57.779Z,98026.44
2023-03-05T03:17:59.540Z,98017.00
2023-03-05T03:23:01.898Z,98015.75
2023-03-05T03:28:03.670Z,98015.41
2023-03-05T03:33:05.479Z,98012.34
2023-03-05T03:38:07.236Z,98012.84
2023-03-05T03:43:09.157Z,98000.69
2023-03-05T03:48:11.599Z,97994.88
2023-03-05T03:53:14.427Z,97995.47
2023-03-05T03:58:16.268Z,97987.78
2023-03-05T04:03:18.293Z,97984.75
2023-03-05T04:08:20.101Z,97978.63
2023-03-05T04:13:21.956Z,97984.16
2023-03-05T04:18:23.829Z,97972.81
2023-03-05T04:23:25.616Z,97974.53
2023-03-05T04:28:27.599Z,97965.72
2023-03-05T04:33:29.502Z,97970.41
2023-03-05T04:38:31.201Z,97964.91
2023-03-05T04:43:33.663Z,97959.56
2023-03-05T04:48:35.463Z,97957.38
2023-03-05T04:53:37.234Z,97950.56
2023-03-05T04:58:39.146Z,97947.25
2023-03-05T05:03:41.035Z,97947.69
2023-03-05T05:08:43.557Z,97954.75
2023-03-05T05:13:45.507Z,97953.75
2023-03-05T05:18:47.340Z,97942.41
2023-03-05T05:23:49.171Z,97947.88
2023-03-05T05:28:50.923Z,97953.53
2023-03-05T05:33:52.738Z,97951.94
2023-03-05T05:38:54.652Z,97936.09
2023-03-05T05:43:56.461Z,97947.56
2023-03-05T05:48:58.350Z,97940.34
2023-03-05T05:54:00.104Z,97941.94
2023-03-05T05:59:01.888Z,97945.88
2023-03-05T06:04:03.964Z,97941.97
2023-03-05T06:09:06.306Z,97946.41
2023-03-05T06:14:08.899Z,97932.53
2023-03-05T06:19:15.707Z,97932.09
2023-03-05T06:24:19.400Z,97933.72
2023-03-05T06:29:21.173Z,97934.63
2023-03-05T06:34:23.258Z,97935.00
2023-03-05T06:39:25.092Z,97930.44
2023-03-05T06:44:26.910Z,97936.09
2023-03-05T06:49:28.659Z,97934.56
2023-03-05T06:54:30.436Z,97932.19
2023-03-05T06:59:32.288Z,97933.41
2023-03-05T07:04:34.044Z,97929.97
2023-03-05T07:09:42.804Z,97931.75
2023-03-05T07:14:44.689Z,97932.72
2023-03-05T07:19:46.504Z,97931.03
2023-03-05T07:24:48.293Z,97925.25
2023-03-05T07:29:50.052Z,97930.94
2023-03-05T07:34:51.829Z,97927.22
2023-03-05T07:39:53.603Z,97930.41
2023-03-05T07:44:55.388Z,97926.00
2023-03-05T07:49:57.132Z,97926.31
2023-03-05T07:54:58.925Z,97924.31
2023-03-05T08:00:00.724Z,97933.59
2023-03-05T08:05:02.482Z,97926.94
2023-03-05T08:10:05.602Z,97911.81
2023-03-05T08:15:08.104Z,97920.66
2023-03-05T08:20:11.288Z,97916.44
2023-03-05T08:25:13.220Z,97904.78
2023-03-05T08:30:18.069Z,97902.13
2023-03-05T08:35:20.418Z,97903.38
2023-03-05T08:40:22.261Z,97890.75
2023-03-05T08:45:24.152Z,97880.06
2023-03-05T08:50:26.137Z,97891.88
2023-03-05T08:55:28.212Z,97876.34
2023-03-05T09:05:51.878Z,97880.34
2023-03-05T09:10:53.665Z,97877.53
2023-03-05T09:16:01.304Z,97870.41
2023-03-05T09:21:10.922Z,97871.06
2023-03-05T09:26:15.617Z,97865.38
2023-03-05T09:31:17.981Z,97859.69
2023-03-05T09:36:25.194Z,97862.41
2023-03-05T09:41:37.110Z,97858.59
2023-03-05T09:46:55.001Z,97858.59
2023-03-05T09:52:03.509Z,97842.84
2023-03-05T10:02:34.362Z,97830.94
2023-03-05T10:07:43.710Z,97827.78
2023-03-05T10:12:50.391Z,97825.56
2023-03-05T10:18:16.855Z,97813.69
2023-03-05T10:23:33.675Z,97805.16
2023-03-05T10:28:41.077Z,97797.44
2023-03-05T10:34:22.659Z,97796.81
2023-03-05T10:45:23.078Z,97785.66
2023-03-05T10:50:26.260Z,97776.13
2023-03-05T10:55:28.116Z,97777.56
2023-03-05T11:00:29.943Z,97786.47
2023-03-05T11:05:36.436Z,97775.00
2023-03-05T11:10:38.244Z,97780.88
2023-03-05T11:15:40.195Z,97784.34
2023-03-05T11:21:21.988Z,97760.22
2023-03-05T11:26:23.773Z,97772.53
2023-03-05T11:31:31.980Z,97761.16
2023-03-05T11:36:34.978Z,97749.03
2023-03-05T11:41:58.360Z,97752.94
2023-03-05T11:47:07.426Z,97745.84
2023-03-05T11:52:27.013Z,97743.25
2023-03-05T11:57:35.327Z,97736.81
2023-03-05T12:02:37.891Z,97735.41
2023-03-05T12:07:45.951Z,97729.03
2023-03-05T12:12:54.206Z,97728.13
2023-03-05T12:18:09.025Z,97709.38
2023-03-05T12:23:15.554Z,97708.19
2023-03-05T12:28:43.017Z,97691.72
2023-03-05T12:33:44.799Z,97686.28
2023-03-05T12:38:48.208Z,97674.88
2023-03-05T12:44:05.156Z,97668.31
2023-03-05T12:49:19.237Z,97668.41
2023-03-05T12:54:29.553Z,97664.91
2023-03-05T13:00:05.224Z,97666.53
2023-03-05T13:05:29.031Z,97658.56
2023-03-05T13:10:30.777Z,97655.34
2023-03-05T13:15:32.932Z,97642.31
2023-03-05T13:20:40.671Z,97631.91
2023-03-05T13:25:43.601Z,97634.41
2023-03-05T13:30:54.718Z,97637.13
2023-03-05T13:35:56.884Z,97631.31
2023-03-05T13:46:34.650Z,97609.59
2023-03-05T13:51:44.933Z,97604.50
2023-03-05T13:56:51.917Z,97599.13
2023-03-05T14:01:54.220Z,97593.75
2023-03-05T14:07:01.658Z,97584.47
2023-03-05T14:12:15.763Z,97584.34
2023-03-05T14:17:27.747Z,97567.19
2023-03-05T14:22:35.927Z,97579.25
2023-03-05T14:27:37.742Z,97571.53
2023-03-05T14:32:39.656Z,97580.44
2023-03-05T14:37:45.021Z,97579.53
2023-03-05T14:42:49.783Z,97594.56
2023-03-05T14:47:53.202Z,97586.84
2023-03-05T14:52:58.050Z,97580.81
2023-03-05T14:58:07.081Z,97575.38
2023-03-05T15:03:13.236Z,97587.22
2023-03-05T15:08:18.798Z,97581.34
2023-03-05T15:13:21.639Z,97583.97
2023-03-05T15:18:23.851Z,97579.88
2023-03-05T15:23:25.622Z,97571.38
2023-03-05T15:28:27.378Z,97568.16
2023-03-05T15:33:43.045Z,97564.09
2023-03-05T15:38:46.751Z,97563.47
2023-03-05T15:43:48.534Z,97561.38
2023-03-05T15:48:50.390Z,97557.34
2023-03-05T15:53:52.256Z,97554.78
2023-03-05T15:58:54.074Z,97554.47
2023-03-05T16:03:55.887Z,97549.13
2023-03-05T16:09:03.614Z,97545.06
2023-03-05T16:14:09.221Z,97534.97
2023-03-05T16:19:13.854Z,97544.41
2023-03-05T16:24:15.810Z,97543.13
2023-03-05T16:29:17.783Z,97540.13
2023-03-05T16:34:19.731Z,97530.97
2023-03-05T16:39:22.446Z,97532.66
2023-03-05T16:44:24.529Z,97529.53
2023-03-05T16:49:26.310Z,97540.84
2023-03-05T16:54:28.164Z,97537.44
2023-03-05T16:59:30.017Z,97525.72
2023-03-05T17:04:32.024Z,97535.53
2023-03-05T17:09:33.895Z,97541.69
2023-03-05T17:14:35.784Z,97539.59
2023-03-05T17:19:37.676Z,97540.66
2023-03-05T17:24:42.885Z,97539.06
2023-03-05T17:29:45.717Z,97526.25
2023-03-05T17:34:47.524Z,97531.16
2023-03-05T17:39:49.426Z,97540.91
2023-03-05T17:44:51.559Z,97545.13
2023-03-05T17:49:53.353Z,97541.03
2023-03-05T17:54:55.327Z,97535.69
2023-03-05T17:59:58.006Z,97536.16
2023-03-05T18:04:59.794Z,97543.25
2023-03-05T18:10:01.659Z,97540.78
2023-03-05T18:15:06.181Z,97544.31
2023-03-05T18:20:10.040Z,97533.19
2023-03-05T18:25:11.822Z,97530.78
2023-03-05T18:30:14.022Z,97539.56
2023-03-05T18:35:16.908Z,97518.66
2023-03-05T18:40:22.584Z,97531.22
2023-03-05T18:45:38.054Z,97522.84
2023-03-05T18:50:39.965Z,97527.97
2023-03-05T18:55:42.947Z,97530.13
2023-03-05T19:00:47.116Z,97531.28
2023-03-05T19:05:50.289Z,97532.34
2023-03-05T19:10:52.102Z,97538.63
2023-03-05T19:21:23.914Z,97528.81
2023-03-05T19:26:25.777Z,97536.59
2023-03-05T19:31:28.051Z,97538.84
2023-03-05T19:36:31.194Z,97526.06
2023-03-05T19:41:33.235Z,97531.94
2023-03-05T19:46:35.221Z,97529.44
2023-03-05T19:51:37.140Z,97498.78
2023-03-05T19:56:40.590Z,97490.13
2023-03-05T20:01:49.280Z,97489.22
2023-03-05T20:06:51.213Z,97496.88
2023-03-05T20:11:53.156Z,97487.66
2023-03-05T20:16:54.936Z,97482.88
2023-03-05T20:21:56.718Z,97483.34
2023-03-05T20:27:00.088Z,97481.19
2023-03-05T20:32:02.228Z,97476.53
2023-03-05T20:37:05.082Z,97463.72
2023-03-05T20:42:06.863Z,97455.88
2023-03-05T20:47:32.334Z,97453.38
2023-03-05T20:52:34.144Z,97444.88
2023-03-05T20:57:35.915Z,97446.13
2023-03-05T21:02:37.779Z,97431.28
2023-03-05T21:07:40.309Z,97425.91
2023-03-05T21:12:43.570Z,97412.69
2023-03-05T21:17:45.828Z,97417.28
2023-03-05T21:22:47.680Z,97414.00
2023-03-05T21:28:08.339Z,97417.19
2023-03-05T21:33:23.188Z,97404.13
2023-03-05T21:38:25.722Z,97398.00
2023-03-05T21:43:28.548Z,97394.50
2023-03-05T21:48:31.184Z,97393.41
2023-03-05T21:53:32.954Z,97380.94
2023-03-05T21:58:35.478Z,97371.66
2023-03-05T22:03:37.400Z,97361.72
2023-03-05T22:08:39.259Z,97366.44
2023-03-05T22:13:41.703Z,97357.00
2023-03-05T22:18:43.465Z,97361.13
2023-03-05T22:23:45.413Z,97353.88
2023-03-05T22:28:47.178Z,97359.38
2023-03-05T22:33:50.107Z,97345.84
2023-03-05T22:38:52.224Z,97343.16
2023-03-05T22:43:54.037Z,97345.38
2023-03-05T22:48:55.823Z,97350.09
2023-03-05T22:53:57.621Z,97348.97
2023-03-05T22:58:59.441Z,97347.84
2023-03-05T23:04:08.797Z,97348.00
2023-03-05T23:09:10.777Z,97344.31
2023-03-05T23:14:12.595Z,97343.22
2023-03-05T23:19:14.369Z,97341.00
2023-03-05T23:24:16.112Z,97344.31
2023-03-05T23:29:18.161Z,97327.13
2023-03-05T23:34:19.944Z,97327.13
2023-03-05T23:39:21.683Z,97325.25
2023-03-05T23:44:23.476Z,97324.47
2023-03-05T23:49:25.358Z,97329.19
2023-03-05T23:54:27.535Z,97319.22
2023-03-05T23:59:29.307Z,97320.00
